sensor_id;sensor_type;location;lat;lon;timestamp;P1;durP1;ratioP1;P2;durP2;ratioP2
50531;SDS011;36483;37.396;-122.212;2023-03-03T00:01:06;4.68;;;1.40;;
50531;SDS011;36483;37.396;-122.212;2023-03-03T00:03:32;6.57;;;1.58;;
50531;SDS011;36483;37.396;-122.212;2023-03-03T00:05:58;5.05;;;1.27;;
50531;SDS011;36483;37.396;-122.212;2023-03-03T00:08:25;5.43;;;1.30;;
50531;SDS011;36483;37.396;-122.212;2023-03-03T00:10:51;4.53;;;1.30;;
50531;SDS011;36483;37.396;-122.212;2023-03-03T00:13:24;7.60;;;1.40;;
50531;SDS011;36483;37.396;-122.212;2023-03-03T00:15:51;6.20;;;1.50;;
50531;SDS011;36483;37.396;-122.212;2023-03-03T00:18:36;6.90;;;1.30;;
50531;SDS011;36483;37.396;-122.212;2023-03-03T00:21:22;4.13;;;1.25;;
50531;SDS011;36483;37.396;-122.212;2023-03-03T00:24:04;5.35;;;1.10;;
50531;SDS011;36483;37.396;-122.212;2023-03-03T00:26:39;4.15;;;1.20;;
50531;SDS011;36483;37.396;-122.212;2023-03-03T00:31:51;5.03;;;1.20;;
50531;SDS011;36483;37.396;-122.212;2023-03-03T00:36:44;3.95;;;1.20;;
50531;SDS011;36483;37.396;-122.212;2023-03-03T00:41:59;7.35;;;1.70;;
50531;SDS011;36483;37.396;-122.212;2023-03-03T00:49:43;6.65;;;1.92;;
50531;SDS011;36483;37.396;-122.212;2023-03-03T00:52:11;7.32;;;1.58;;
50531;SDS011;36483;37.396;-122.212;2023-03-03T00:54:39;4.47;;;1.35;;
50531;SDS011;36483;37.396;-122.212;2023-03-03T00:57:05;7.32;;;1.80;;
50531;SDS011;36483;37.396;-122.212;2023-03-03T00:59:31;7.97;;;1.58;;
50531;SDS011;36483;37.396;-122.212;2023-03-03T01:01:57;4.63;;;1.67;;
50531;SDS011;36483;37.396;-122.212;2023-03-03T01:04:23;6.60;;;1.70;;
50531;SDS011;36483;37.396;-122.212;2023-03-03T01:06:49;7.20;;;1.63;;
50531;SDS011;36483;37.396;-122.212;2023-03-03T01:09:15;6.57;;;1.70;;
50531;SDS011;36483;37.396;-122.212;2023-03-03T01:11:41;7.15;;;1.55;;
50531;SDS011;36483;37.396;-122.212;2023-03-03T01:14:08;7.88;;;1.80;;
50531;SDS011;36483;37.396;-122.212;2023-03-03T01:16:34;5.15;;;1.77;;
50531;SDS011;36483;37.396;-122.212;2023-03-03T01:19:00;9.10;;;1.70;;
50531;SDS011;36483;37.396;-122.212;2023-03-03T01:21:26;7.03;;;2.10;;
50531;SDS011;36483;37.396;-122.212;2023-03-03T01:23:52;5.55;;;1.80;;
50531;SDS011;36483;37.396;-122.212;2023-03-03T01:26:18;8.68;;;2.00;;
50531;SDS011;36483;37.396;-122.212;2023-03-03T01:28:44;9.38;;;2.33;;
50531;SDS011;36483;37.396;-122.212;2023-03-03T01:31:11;8.82;;;1.88;;
50531;SDS011;36483;37.396;-122.212;2023-03-03T01:33:37;10.02;;;2.03;;
50531;SDS011;36483;37.396;-122.212;2023-03-03T01:36:04;8.43;;;1.77;;
50531;SDS011;36483;37.396;-122.212;2023-03-03T01:38:30;12.27;;;2.58;;
50531;SDS011;36483;37.396;-122.212;2023-03-03T01:40:58;9.98;;;2.30;;
50531;SDS011;36483;37.396;-122.212;2023-03-03T01:43:26;7.47;;;1.92;;
50531;SDS011;36483;37.396;-122.212;2023-03-03T01:48:23;11.52;;;2.67;;
50531;SDS011;36483;37.396;-122.212;2023-03-03T01:53:21;9.85;;;2.28;;
50531;SDS011;36483;37.396;-122.212;2023-03-03T01:55:52;12.93;;;3.08;;
50531;SDS011;36483;37.396;-122.212;2023-03-03T01:58:19;9.85;;;2.47;;
50531;SDS011;36483;37.396;-122.212;2023-03-03T02:00:49;9.10;;;2.15;;
50531;SDS011;36483;37.396;-122.212;2023-03-03T02:03:18;10.63;;;2.20;;
50531;SDS011;36483;37.396;-122.212;2023-03-03T02:05:45;7.25;;;2.08;;
50531;SDS011;36483;37.396;-122.212;2023-03-03T02:08:12;9.65;;;2.50;;
50531;SDS011;36483;37.396;-122.212;2023-03-03T02:10:42;8.68;;;1.90;;
50531;SDS011;36483;37.396;-122.212;2023-03-03T02:13:09;6.47;;;2.00;;
50531;SDS011;36483;37.396;-122.212;2023-03-03T02:15:35;11.30;;;2.25;;
50531;SDS011;36483;37.396;-122.212;2023-03-03T02:18:06;10.02;;;2.42;;
50531;SDS011;36483;37.396;-122.212;2023-03-03T02:20:43;6.15;;;2.00;;
50531;SDS011;36483;37.396;-122.212;2023-03-03T02:23:17;13.32;;;2.20;;
50531;SDS011;36483;37.396;-122.212;2023-03-03T02:26:20;8.48;;;2.42;;
50531;SDS011;36483;37.396;-122.212;2023-03-03T02:28:57;8.25;;;2.13;;
50531;SDS011;36483;37.396;-122.212;2023-03-03T02:31:24;11.90;;;2.30;;
50531;SDS011;36483;37.396;-122.212;2023-03-03T02:33:53;8.23;;;1.65;;
50531;SDS011;36483;37.396;-122.212;2023-03-03T02:41:32;6.85;;;1.70;;
50531;SDS011;36483;37.396;-122.212;2023-03-03T02:44:03;9.88;;;2.72;;
50531;SDS011;36483;37.396;-122.212;2023-03-03T02:46:41;9.85;;;2.03;;
50531;SDS011;36483;37.396;-122.212;2023-03-03T02:49:10;8.63;;;2.38;;
50531;SDS011;36483;37.396;-122.212;2023-03-03T02:51:37;7.25;;;1.77;;
50531;SDS011;36483;37.396;-122.212;2023-03-03T02:54:04;11.65;;;2.40;;
50531;SDS011;36483;37.396;-122.212;2023-03-03T02:56:31;7.63;;;2.10;;
50531;SDS011;36483;37.396;-122.212;2023-03-03T02:58:58;9.48;;;2.03;;
50531;SDS011;36483;37.396;-122.212;2023-03-03T03:01:24;8.48;;;2.10;;
50531;SDS011;36483;37.396;-122.212;2023-03-03T03:03:50;7.72;;;1.95;;
50531;SDS011;36483;37.396;-122.212;2023-03-03T03:06:17;7.68;;;1.88;;
50531;SDS011;36483;37.396;-122.212;2023-03-03T03:08:44;7.07;;;1.92;;
50531;SDS011;36483;37.396;-122.212;2023-03-03T03:11:10;7.80;;;1.90;;
50531;SDS011;36483;37.396;-122.212;2023-03-03T03:13:36;6.60;;;1.73;;
50531;SDS011;36483;37.396;-122.212;2023-03-03T03:16:02;9.63;;;2.50;;
50531;SDS011;36483;37.396;-122.212;2023-03-03T03:18:49;10.00;;;2.10;;
50531;SDS011;36483;37.396;-122.212;2023-03-03T03:21:15;13.02;;;3.00;;
50531;SDS011;36483;37.396;-122.212;2023-03-03T03:23:42;8.13;;;2.42;;
50531;SDS011;36483;37.396;-122.212;2023-03-03T03:26:08;7.53;;;1.98;;
50531;SDS011;36483;37.396;-122.212;2023-03-03T03:28:34;7.35;;;2.00;;
50531;SDS011;36483;37.396;-122.212;2023-03-03T03:31:01;7.70;;;2.20;;
50531;SDS011;36483;37.396;-122.212;2023-03-03T03:33:28;11.65;;;2.22;;
50531;SDS011;36483;37.396;-122.212;2023-03-03T03:35:54;8.65;;;1.70;;
50531;SDS011;36483;37.396;-122.212;2023-03-03T03:38:22;6.45;;;1.98;;
50531;SDS011;36483;37.396;-122.212;2023-03-03T03:40:48;8.73;;;1.90;;
50531;SDS011;36483;37.396;-122.212;2023-03-03T03:43:14;8.13;;;1.65;;
50531;SDS011;36483;37.396;-122.212;2023-03-03T03:45:41;8.02;;;2.00;;
50531;SDS011;36483;37.396;-122.212;2023-03-03T03:48:07;7.10;;;2.40;;
50531;SDS011;36483;37.396;-122.212;2023-03-03T03:50:34;7.25;;;2.10;;
50531;SDS011;36483;37.396;-122.212;2023-03-03T03:53:00;7.65;;;2.03;;
50531;SDS011;36483;37.396;-122.212;2023-03-03T03:55:26;9.20;;;1.90;;
50531;SDS011;36483;37.396;-122.212;2023-03-03T03:57:53;9.35;;;2.15;;
50531;SDS011;36483;37.396;-122.212;2023-03-03T04:00:20;9.98;;;2.03;;
50531;SDS011;36483;37.396;-122.212;2023-03-03T04:02:47;7.68;;;1.70;;
50531;SDS011;36483;37.396;-122.212;2023-03-03T04:05:13;9.80;;;2.40;;
50531;SDS011;36483;37.396;-122.212;2023-03-03T04:07:39;9.98;;;2.58;;
50531;SDS011;36483;37.396;-122.212;2023-03-03T04:10:06;9.60;;;1.90;;
50531;SDS011;36483;37.396;-122.212;2023-03-03T04:12:32;7.32;;;2.45;;
50531;SDS011;36483;37.396;-122.212;2023-03-03T04:15:09;11.75;;;2.42;;
50531;SDS011;36483;37.396;-122.212;2023-03-03T04:17:37;6.82;;;2.10;;
50531;SDS011;36483;37.396;-122.212;2023-03-03T04:20:03;8.43;;;2.50;;
50531;SDS011;36483;37.396;-122.212;2023-03-03T04:22:30;7.30;;;2.00;;
50531;SDS011;36483;37.396;-122.212;2023-03-03T04:25:00;6.40;;;2.38;;
50531;SDS011;36483;37.396;-122.212;2023-03-03T04:27:34;7.25;;;2.10;;
50531;SDS011;36483;37.396;-122.212;2023-03-03T04:30:01;7.63;;;2.67;;
50531;SDS011;36483;37.396;-122.212;2023-03-03T04:32:28;8.52;;;2.15;;
50531;SDS011;36483;37.396;-122.212;2023-03-03T04:34:54;10.82;;;2.30;;
50531;SDS011;36483;37.396;-122.212;2023-03-03T04:37:21;6.82;;;2.28;;
50531;SDS011;36483;37.396;-122.212;2023-03-03T04:39:47;9.65;;;2.17;;
50531;SDS011;36483;37.396;-122.212;2023-03-03T04:42:13;8.40;;;2.38;;
50531;SDS011;36483;37.396;-122.212;2023-03-03T04:44:39;10.15;;;2.50;;
50531;SDS011;36483;37.396;-122.212;2023-03-03T04:47:06;7.55;;;2.20;;
50531;SDS011;36483;37.396;-122.212;2023-03-03T04:49:32;7.07;;;2.50;;
50531;SDS011;36483;37.396;-122.212;2023-03-03T04:51:58;6.50;;;1.92;;
50531;SDS011;36483;37.396;-122.212;2023-03-03T04:54:24;9.07;;;2.55;;
50531;SDS011;36483;37.396;-122.212;2023-03-03T04:56:50;8.55;;;2.08;;
50531;SDS011;36483;37.396;-122.212;2023-03-03T04:59:16;9.32;;;2.25;;
50531;SDS011;36483;37.396;-122.212;2023-03-03T05:01:42;8.13;;;2.20;;
50531;SDS011;36483;37.396;-122.212;2023-03-03T05:04:10;7.80;;;2.58;;
50531;SDS011;36483;37.396;-122.212;2023-03-03T05:06:37;8.45;;;2.50;;
50531;SDS011;36483;37.396;-122.212;2023-03-03T05:09:03;11.02;;;2.75;;
50531;SDS011;36483;37.396;-122.212;2023-03-03T05:11:29;8.07;;;2.30;;
50531;SDS011;36483;37.396;-122.212;2023-03-03T05:13:56;6.30;;;2.25;;
50531;SDS011;36483;37.396;-122.212;2023-03-03T05:16:23;9.50;;;2.33;;
50531;SDS011;36483;37.396;-122.212;2023-03-03T05:18:49;6.47;;;2.30;;
50531;SDS011;36483;37.396;-122.212;2023-03-03T05:21:15;8.95;;;2.78;;
50531;SDS011;36483;37.396;-122.212;2023-03-03T05:23:41;7.63;;;2.50;;
50531;SDS011;36483;37.396;-122.212;2023-03-03T05:26:08;9.90;;;2.70;;
50531;SDS011;36483;37.396;-122.212;2023-03-03T05:28:34;11.48;;;2.65;;
50531;SDS011;36483;37.396;-122.212;2023-03-03T05:31:00;8.38;;;2.63;;
50531;SDS011;36483;37.396;-122.212;2023-03-03T05:33:26;7.88;;;2.78;;
50531;SDS011;36483;37.396;-122.212;2023-03-03T05:35:53;11.52;;;3.05;;
50531;SDS011;36483;37.396;-122.212;2023-03-03T05:38:20;7.95;;;2.63;;
50531;SDS011;36483;37.396;-122.212;2023-03-03T05:40:46;7.25;;;2.60;;
50531;SDS011;36483;37.396;-122.212;2023-03-03T05:43:13;8.65;;;2.78;;
50531;SDS011;36483;37.396;-122.212;2023-03-03T05:45:39;9.77;;;2.60;;
50531;SDS011;36483;37.396;-122.212;2023-03-03T05:48:05;14.35;;;3.33;;
50531;SDS011;36483;37.396;-122.212;2023-03-03T05:50:31;11.52;;;3.53;;
50531;SDS011;36483;37.396;-122.212;2023-03-03T05:52:58;11.57;;;4.07;;
50531;SDS011;36483;37.396;-122.212;2023-03-03T05:55:24;10.85;;;3.80;;
50531;SDS011;36483;37.396;-122.212;2023-03-03T05:57:50;11.38;;;4.20;;
50531;SDS011;36483;37.396;-122.212;2023-03-03T06:00:16;11.45;;;3.83;;
50531;SDS011;36483;37.396;-122.212;2023-03-03T06:02:43;10.80;;;4.03;;
50531;SDS011;36483;37.396;-122.212;2023-03-03T06:05:09;11.88;;;4.10;;
50531;SDS011;36483;37.396;-122.212;2023-03-03T06:07:36;9.43;;;4.13;;
50531;SDS011;36483;37.396;-122.212;2023-03-03T06:10:02;8.98;;;3.85;;
50531;SDS011;36483;37.396;-122.212;2023-03-03T06:12:29;10.98;;;3.88;;
50531;SDS011;36483;37.396;-122.212;2023-03-03T06:14:55;11.93;;;3.40;;
50531;SDS011;36483;37.396;-122.212;2023-03-03T06:17:21;10.30;;;3.13;;
50531;SDS011;36483;37.396;-122.212;2023-03-03T06:19:47;9.40;;;3.22;;
50531;SDS011;36483;37.396;-122.212;2023-03-03T06:22:14;8.90;;;3.05;;
50531;SDS011;36483;37.396;-122.212;2023-03-03T06:24:40;10.02;;;3.10;;
50531;SDS011;36483;37.396;-122.212;2023-03-03T06:27:06;6.07;;;2.40;;
50531;SDS011;36483;37.396;-122.212;2023-03-03T06:29:33;9.25;;;2.70;;
50531;SDS011;36483;37.396;-122.212;2023-03-03T06:31:59;4.97;;;2.22;;
50531;SDS011;36483;37.396;-122.212;2023-03-03T06:34:26;6.60;;;2.60;;
50531;SDS011;36483;37.396;-122.212;2023-03-03T06:36:52;7.30;;;2.50;;
50531;SDS011;36483;37.396;-122.212;2023-03-03T06:39:18;8.88;;;3.22;;
50531;SDS011;36483;37.396;-122.212;2023-03-03T06:41:44;7.18;;;2.60;;
50531;SDS011;36483;37.396;-122.212;2023-03-03T06:44:10;5.82;;;2.00;;
50531;SDS011;36483;37.396;-122.212;2023-03-03T06:46:36;7.25;;;2.30;;
50531;SDS011;36483;37.396;-122.212;2023-03-03T06:49:03;8.07;;;2.50;;
50531;SDS011;36483;37.396;-122.212;2023-03-03T06:51:33;9.60;;;2.78;;
50531;SDS011;36483;37.396;-122.212;2023-03-03T06:54:01;9.77;;;2.35;;
50531;SDS011;36483;37.396;-122.212;2023-03-03T06:56:32;6.93;;;2.22;;
50531;SDS011;36483;37.396;-122.212;2023-03-03T06:59:01;9.35;;;2.58;;
50531;SDS011;36483;37.396;-122.212;2023-03-03T07:01:34;7.55;;;2.17;;
50531;SDS011;36483;37.396;-122.212;2023-03-03T07:04:00;9.93;;;2.47;;
50531;SDS011;36483;37.396;-122.212;2023-03-03T07:06:50;5.93;;;2.10;;
50531;SDS011;36483;37.396;-122.212;2023-03-03T07:09:19;6.22;;;2.15;;
50531;SDS011;36483;37.396;-122.212;2023-03-03T07:11:48;7.60;;;2.40;;
50531;SDS011;36483;37.396;-122.212;2023-03-03T07:14:17;7.93;;;2.22;;
50531;SDS011;36483;37.396;-122.212;2023-03-03T07:16:44;8.25;;;2.42;;
50531;SDS011;36483;37.396;-122.212;2023-03-03T07:19:16;6.88;;;2.30;;
50531;SDS011;36483;37.396;-122.212;2023-03-03T07:21:45;8.50;;;2.85;;
50531;SDS011;36483;37.396;-122.212;2023-03-03T07:24:21;5.38;;;2.58;;
50531;SDS011;36483;37.396;-122.212;2023-03-03T07:26:53;9.38;;;4.05;;
50531;SDS011;36483;37.396;-122.212;2023-03-03T07:29:22;7.90;;;3.10;;
50531;SDS011;36483;37.396;-122.212;2023-03-03T07:36:49;6.50;;;2.15;;
50531;SDS011;36483;37.396;-122.212;2023-03-03T07:41:48;7.47;;;2.00;;
50531;SDS011;36483;37.396;-122.212;2023-03-03T07:44:20;9.02;;;2.60;;
50531;SDS011;36483;37.396;-122.212;2023-03-03T07:46:47;6.72;;;2.40;;
50531;SDS011;36483;37.396;-122.212;2023-03-03T07:51:56;6.35;;;2.20;;
50531;SDS011;36483;37.396;-122.212;2023-03-03T07:57:11;10.63;;;2.67;;
50531;SDS011;36483;37.396;-122.212;2023-03-03T07:59:48;8.27;;;2.47;;
50531;SDS011;36483;37.396;-122.212;2023-03-03T08:02:38;9.18;;;2.28;;
50531;SDS011;36483;37.396;-122.212;2023-03-03T08:08:02;10.85;;;2.63;;
50531;SDS011;36483;37.396;-122.212;2023-03-03T08:10:41;6.75;;;2.20;;
50531;SDS011;36483;37.396;-122.212;2023-03-03T08:13:19;7.60;;;3.08;;
50531;SDS011;36483;37.396;-122.212;2023-03-03T08:18:43;7.15;;;2.17;;
50531;SDS011;36483;37.396;-122.212;2023-03-03T08:23:40;6.30;;;2.13;;
50531;SDS011;36483;37.396;-122.212;2023-03-03T08:26:06;9.40;;;2.28;;
50531;SDS011;36483;37.396;-122.212;2023-03-03T08:28:33;8.23;;;2.45;;
50531;SDS011;36483;37.396;-122.212;2023-03-03T08:30:59;6.65;;;2.15;;
50531;SDS011;36483;37.396;-122.212;2023-03-03T08:33:25;8.98;;;2.45;;
50531;SDS011;36483;37.396;-122.212;2023-03-03T08:35:51;7.72;;;2.20;;
50531;SDS011;36483;37.396;-122.212;2023-03-03T08:38:19;9.95;;;2.33;;
50531;SDS011;36483;37.396;-122.212;2023-03-03T08:40:46;8.63;;;2.20;;
50531;SDS011;36483;37.396;-122.212;2023-03-03T08:43:13;5.85;;;1.92;;
50531;SDS011;36483;37.396;-122.212;2023-03-03T08:45:42;6.00;;;2.13;;
50531;SDS011;36483;37.396;-122.212;2023-03-03T08:48:09;6.65;;;1.80;;
50531;SDS011;36483;37.396;-122.212;2023-03-03T08:50:36;7.30;;;2.20;;
50531;SDS011;36483;37.396;-122.212;2023-03-03T08:53:03;5.93;;;1.80;;
50531;SDS011;36483;37.396;-122.212;2023-03-03T08:55:29;7.63;;;2.00;;
50531;SDS011;36483;37.396;-122.212;2023-03-03T08:57:55;6.82;;;1.67;;
50531;SDS011;36483;37.396;-122.212;2023-03-03T09:00:22;5.72;;;1.88;;
50531;SDS011;36483;37.396;-122.212;2023-03-03T09:02:49;9.65;;;2.20;;
50531;SDS011;36483;37.396;-122.212;2023-03-03T09:05:16;6.25;;;2.20;;
50531;SDS011;36483;37.396;-122.212;2023-03-03T09:07:44;8.00;;;1.98;;
50531;SDS011;36483;37.396;-122.212;2023-03-03T09:10:11;9.23;;;2.05;;
50531;SDS011;36483;37.396;-122.212;2023-03-03T09:12:40;6.43;;;1.77;;
50531;SDS011;36483;37.396;-122.212;2023-03-03T09:15:21;6.05;;;1.98;;
50531;SDS011;36483;37.396;-122.212;2023-03-03T09:17:48;7.32;;;2.00;;
50531;SDS011;36483;37.396;-122.212;2023-03-03T09:20:27;6.35;;;1.98;;
50531;SDS011;36483;37.396;-122.212;2023-03-03T09:23:16;6.05;;;1.75;;
50531;SDS011;36483;37.396;-122.212;2023-03-03T09:28:55;6.07;;;2.30;;
50531;SDS011;36483;37.396;-122.212;2023-03-03T09:31:44;7.80;;;2.10;;
50531;SDS011;36483;37.396;-122.212;2023-03-03T09:34:20;6.13;;;1.95;;
50531;SDS011;36483;37.396;-122.212;2023-03-03T09:36:48;9.00;;;2.05;;
50531;SDS011;36483;37.396;-122.212;2023-03-03T09:39:17;8.55;;;2.03;;
50531;SDS011;36483;37.396;-122.212;2023-03-03T10:05:51;6.65;;;1.58;;
50531;SDS011;36483;37.396;-122.212;2023-03-03T10:08:36;7.20;;;1.60;;
50531;SDS011;36483;37.396;-122.212;2023-03-03T10:22:19;5.40;;;1.60;;
50531;SDS011;36483;37.396;-122.212;2023-03-03T10:30:36;6.43;;;2.00;;
50531;SDS011;36483;37.396;-122.212;2023-03-03T10:33:31;5.90;;;1.63;;
50531;SDS011;36483;37.396;-122.212;2023-03-03T10:36:29;6.45;;;1.77;;
50531;SDS011;36483;37.396;-122.212;2023-03-03T10:44:26;8.27;;;1.98;;
50531;SDS011;36483;37.396;-122.212;2023-03-03T10:47:21;5.97;;;1.65;;
50531;SDS011;36483;37.396;-122.212;2023-03-03T10:50:11;5.55;;;1.45;;
50531;SDS011;36483;37.396;-122.212;2023-03-03T11:06:09;3.22;;;1.40;;
50531;SDS011;36483;37.396;-122.212;2023-03-03T11:08:45;7.20;;;1.65;;
50531;SDS011;36483;37.396;-122.212;2023-03-03T11:14:26;4.22;;;1.40;;
50531;SDS011;36483;37.396;-122.212;2023-03-03T11:17:10;5.50;;;1.60;;
50531;SDS011;36483;37.396;-122.212;2023-03-03T11:22:23;5.32;;;2.10;;
50531;SDS011;36483;37.396;-122.212;2023-03-03T11:25:15;6.80;;;2.10;;
50531;SDS011;36483;37.396;-122.212;2023-03-03T11:46:50;3.47;;;1.60;;
50531;SDS011;36483;37.396;-122.212;2023-03-03T11:52:24;4.93;;;1.13;;
50531;SDS011;36483;37.396;-122.212;2023-03-03T11:55:40;3.75;;;1.20;;
50531;SDS011;36483;37.396;-122.212;2023-03-03T12:11:43;3.28;;;1.30;;
50531;SDS011;36483;37.396;-122.212;2023-03-03T12:17:02;3.25;;;1.27;;
50531;SDS011;36483;37.396;-122.212;2023-03-03T12:35:10;2.90;;;1.25;;
50531;SDS011;36483;37.396;-122.212;2023-03-03T12:41:02;5.28;;;1.52;;
50531;SDS011;36483;37.396;-122.212;2023-03-03T12:46:39;5.78;;;1.50;;
50531;SDS011;36483;37.396;-122.212;2023-03-03T12:49:10;3.88;;;1.10;;
50531;SDS011;36483;37.396;-122.212;2023-03-03T12:56:45;6.53;;;1.60;;
50531;SDS011;36483;37.396;-122.212;2023-03-03T13:10:34;4.07;;;1.60;;
50531;SDS011;36483;37.396;-122.212;2023-03-03T13:15:55;4.07;;;1.77;;
50531;SDS011;36483;37.396;-122.212;2023-03-03T13:18:46;4.97;;;1.40;;
50531;SDS011;36483;37.396;-122.212;2023-03-03T13:21:26;5.20;;;1.40;;
50531;SDS011;36483;37.396;-122.212;2023-03-03T13:26:46;3.67;;;1.55;;
50531;SDS011;36483;37.396;-122.212;2023-03-03T13:31:54;5.88;;;1.35;;
50531;SDS011;36483;37.396;-122.212;2023-03-03T13:34:32;4.45;;;1.30;;
50531;SDS011;36483;37.396;-122.212;2023-03-03T13:42:44;2.85;;;1.17;;
50531;SDS011;36483;37.396;-122.212;2023-03-03T13:45:19;2.78;;;1.00;;
50531;SDS011;36483;37.396;-122.212;2023-03-03T13:50:40;3.83;;;1.30;;
50531;SDS011;36483;37.396;-122.212;2023-03-03T13:58:36;5.13;;;1.38;;
50531;SDS011;36483;37.396;-122.212;2023-03-03T14:06:23;4.15;;;1.30;;
50531;SDS011;36483;37.396;-122.212;2023-03-03T14:08:57;2.03;;;1.15;;
50531;SDS011;36483;37.396;-122.212;2023-03-03T14:16:49;3.60;;;1.27;;
50531;SDS011;36483;37.396;-122.212;2023-03-03T14:25:07;2.35;;;1.00;;
50531;SDS011;36483;37.396;-122.212;2023-03-03T14:27:39;3.85;;;1.33;;
50531;SDS011;36483;37.396;-122.212;2023-03-03T14:30:40;4.35;;;1.40;;
50531;SDS011;36483;37.396;-122.212;2023-03-03T14:38:20;2.75;;;1.20;;
50531;SDS011;36483;37.396;-122.212;2023-03-03T14:43:37;4.72;;;1.25;;
50531;SDS011;36483;37.396;-122.212;2023-03-03T14:48:52;3.80;;;1.00;;
50531;SDS011;36483;37.396;-122.212;2023-03-03T14:53:53;3.15;;;1.30;;
50531;SDS011;36483;37.396;-122.212;2023-03-03T14:56:38;2.30;;;1.10;;
50531;SDS011;36483;37.396;-122.212;2023-03-03T14:59:26;2.40;;;1.00;;
50531;SDS011;36483;37.396;-122.212;2023-03-03T15:04:42;2.05;;;0.98;;
50531;SDS011;36483;37.396;-122.212;2023-03-03T15:07:18;6.32;;;1.23;;
50531;SDS011;36483;37.396;-122.212;2023-03-03T15:09:52;3.22;;;1.40;;
50531;SDS011;36483;37.396;-122.212;2023-03-03T15:14:52;2.65;;;1.10;;
50531;SDS011;36483;37.396;-122.212;2023-03-03T15:17:33;2.60;;;1.20;;
50531;SDS011;36483;37.396;-122.212;2023-03-03T15:23:04;3.42;;;1.00;;
50531;SDS011;36483;37.396;-122.212;2023-03-03T15:25:58;3.83;;;1.17;;
50531;SDS011;36483;37.396;-122.212;2023-03-03T15:33:46;4.25;;;1.23;;
50531;SDS011;36483;37.396;-122.212;2023-03-03T15:41:56;3.30;;;1.10;;
50531;SDS011;36483;37.396;-122.212;2023-03-03T15:58:39;3.75;;;1.20;;
50531;SDS011;36483;37.396;-122.212;2023-03-03T16:01:28;5.05;;;1.35;;
50531;SDS011;36483;37.396;-122.212;2023-03-03T16:04:19;2.55;;;1.08;;
50531;SDS011;36483;37.396;-122.212;2023-03-03T16:07:28;4.30;;;1.48;;
50531;SDS011;36483;37.396;-122.212;2023-03-03T16:23:29;3.40;;;1.30;;
50531;SDS011;36483;37.396;-122.212;2023-03-03T16:29:18;4.40;;;1.13;;
50531;SDS011;36483;37.396;-122.212;2023-03-03T16:31:55;3.92;;;1.30;;
50531;SDS011;36483;37.396;-122.212;2023-03-03T16:34:31;4.45;;;1.50;;
50531;SDS011;36483;37.396;-122.212;2023-03-03T16:42:25;5.68;;;1.90;;
50531;SDS011;36483;37.396;-122.212;2023-03-03T16:53:05;6.38;;;2.72;;
50531;SDS011;36483;37.396;-122.212;2023-03-03T16:58:25;9.13;;;2.90;;
50531;SDS011;36483;37.396;-122.212;2023-03-03T17:04:20;9.82;;;2.63;;
50531;SDS011;36483;37.396;-122.212;2023-03-03T17:07:02;7.25;;;2.25;;
50531;SDS011;36483;37.396;-122.212;2023-03-03T17:17:42;9.75;;;2.40;;
50531;SDS011;36483;37.396;-122.212;2023-03-03T17:35:03;12.73;;;2.20;;
50531;SDS011;36483;37.396;-122.212;2023-03-03T17:40:18;6.80;;;2.22;;
50531;SDS011;36483;37.396;-122.212;2023-03-03T17:43:20;3.85;;;1.85;;
50531;SDS011;36483;37.396;-122.212;2023-03-03T17:45:52;6.57;;;2.08;;
50531;SDS011;36483;37.396;-122.212;2023-03-03T18:04:54;8.65;;;2.00;;
50531;SDS011;36483;37.396;-122.212;2023-03-03T18:07:48;8.60;;;2.28;;
50531;SDS011;36483;37.396;-122.212;2023-03-03T18:20:55;5.47;;;2.45;;
50531;SDS011;36483;37.396;-122.212;2023-03-03T18:39:45;6.25;;;1.73;;
50531;SDS011;36483;37.396;-122.212;2023-03-03T18:44:45;6.40;;;1.77;;
50531;SDS011;36483;37.396;-122.212;2023-03-03T19:06:00;4.20;;;1.40;;
50531;SDS011;36483;37.396;-122.212;2023-03-03T19:19:58;7.95;;;1.80;;
50531;SDS011;36483;37.396;-122.212;2023-03-03T19:22:27;5.22;;;1.60;;
50531;SDS011;36483;37.396;-122.212;2023-03-03T19:25:11;5.40;;;1.40;;
50531;SDS011;36483;37.396;-122.212;2023-03-03T19:33:17;3.05;;;1.17;;
50531;SDS011;36483;37.396;-122.212;2023-03-03T19:38:41;4.70;;;1.38;;
50531;SDS011;36483;37.396;-122.212;2023-03-03T19:49:12;7.20;;;1.50;;
50531;SDS011;36483;37.396;-122.212;2023-03-03T19:57:18;6.13;;;1.80;;
50531;SDS011;36483;37.396;-122.212;2023-03-03T20:00:11;4.70;;;1.33;;
50531;SDS011;36483;37.396;-122.212;2023-03-03T20:11:46;5.03;;;1.40;;
50531;SDS011;36483;37.396;-122.212;2023-03-03T20:17:35;6.82;;;1.63;;
50531;SDS011;36483;37.396;-122.212;2023-03-03T20:23:17;6.82;;;2.20;;
50531;SDS011;36483;37.396;-122.212;2023-03-03T20:26:00;7.20;;;2.20;;
50531;SDS011;36483;37.396;-122.212;2023-03-03T20:29:01;5.93;;;2.08;;
50531;SDS011;36483;37.396;-122.212;2023-03-03T20:32:38;4.53;;;2.00;;
50531;SDS011;36483;37.396;-122.212;2023-03-03T20:51:08;6.40;;;2.47;;
50531;SDS011;36483;37.396;-122.212;2023-03-03T20:56:11;6.07;;;2.13;;
50531;SDS011;36483;37.396;-122.212;2023-03-03T21:04:33;8.13;;;2.75;;
50531;SDS011;36483;37.396;-122.212;2023-03-03T21:07:01;5.40;;;2.05;;
50531;SDS011;36483;37.396;-122.212;2023-03-03T21:09:37;8.00;;;2.30;;
50531;SDS011;36483;37.396;-122.212;2023-03-03T21:12:11;7.90;;;2.38;;
50531;SDS011;36483;37.396;-122.212;2023-03-03T21:14:58;7.05;;;2.00;;
50531;SDS011;36483;37.396;-122.212;2023-03-03T21:17:27;5.93;;;2.30;;
50531;SDS011;36483;37.396;-122.212;2023-03-03T21:19:54;4.88;;;1.92;;
50531;SDS011;36483;37.396;-122.212;2023-03-03T21:22:20;6.85;;;1.90;;
50531;SDS011;36483;37.396;-122.212;2023-03-03T21:27:24;5.40;;;2.03;;
50531;SDS011;36483;37.396;-122.212;2023-03-03T21:32:43;6.20;;;2.15;;
50531;SDS011;36483;37.396;-122.212;2023-03-03T21:35:20;8.95;;;2.20;;
50531;SDS011;36483;37.396;-122.212;2023-03-03T21:37:55;5.32;;;2.10;;
50531;SDS011;36483;37.396;-122.212;2023-03-03T21:40:23;5.20;;;1.95;;
50531;SDS011;36483;37.396;-122.212;2023-03-03T21:42:52;4.15;;;1.98;;
50531;SDS011;36483;37.396;-122.212;2023-03-03T21:45:19;2.90;;;1.80;;
50531;SDS011;36483;37.396;-122.212;2023-03-03T21:47:46;4.85;;;2.08;;
50531;SDS011;36483;37.396;-122.212;2023-03-03T21:50:12;5.80;;;2.00;;
50531;SDS011;36483;37.396;-122.212;2023-03-03T21:52:39;6.57;;;2.40;;
50531;SDS011;36483;37.396;-122.212;2023-03-03T21:55:05;6.40;;;3.00;;
50531;SDS011;36483;37.396;-122.212;2023-03-03T21:57:32;7.57;;;2.60;;
50531;SDS011;36483;37.396;-122.212;2023-03-03T21:59:59;7.13;;;2.75;;
50531;SDS011;36483;37.396;-122.212;2023-03-03T22:02:26;6.22;;;2.40;;
50531;SDS011;36483;37.396;-122.212;2023-03-03T22:04:52;7.40;;;2.40;;
50531;SDS011;36483;37.396;-122.212;2023-03-03T22:07:18;8.02;;;3.05;;
50531;SDS011;36483;37.396;-122.212;2023-03-03T22:09:44;5.43;;;2.97;;
50531;SDS011;36483;37.396;-122.212;2023-03-03T22:12:11;6.30;;;2.60;;
50531;SDS011;36483;37.396;-122.212;2023-03-03T22:14:37;6.90;;;3.03;;
50531;SDS011;36483;37.396;-122.212;2023-03-03T22:17:03;7.75;;;2.92;;
50531;SDS011;36483;37.396;-122.212;2023-03-03T22:19:29;5.65;;;3.25;;
50531;SDS011;36483;37.396;-122.212;2023-03-03T22:21:55;8.13;;;2.88;;
50531;SDS011;36483;37.396;-122.212;2023-03-03T22:24:22;6.65;;;2.80;;
50531;SDS011;36483;37.396;-122.212;2023-03-03T22:26:48;5.38;;;3.03;;
50531;SDS011;36483;37.396;-122.212;2023-03-03T22:29:14;7.15;;;3.28;;
50531;SDS011;36483;37.396;-122.212;2023-03-03T22:31:41;5.97;;;2.63;;